Time;durP1;ratioP1;P1;durP2;ratioP2;P2;SDS_P1;SDS_P2;PMS_P1;PMS_P2;Temp;Humidity;BMP_temperature;BMP_pressure;BME280_temperature;BME280_humidity;BME280_pressure;Samples;Min_cycle;Max_cycle;Signal;HPM_P1;HPM_P2
2022/05/19 00:01:53;;;;;;;4.78;2.78;;;;;;;8.14;70.71;96501.06;5013731;28;20041;-75
2022/05/19 00:04:19;;;;;;;4.95;2.78;;;;;;;8.14;71.04;96503.72;5010911;28;20034;-76
2022/05/19 00:06:44;;;;;;;7.05;2.65;;;;;;;8.15;70.49;96500.06;5027086;28;20416;-76
2022/05/19 00:09:10;;;;;;;4.88;2.90;;;;;;;8.08;70.92;96499.75;5027784;28;20508;-77
2022/05/19 00:11:35;;;;;;;3.63;2.40;;;;;;;7.99;71.33;96504.09;5028014;28;20049;-75
2022/05/19 00:14:01;;;;;;;5.47;2.30;;;;;;;8.08;71.17;96504.25;5028800;28;20029;-75
2022/05/19 00:16:27;;;;;;;6.82;2.60;;;;;;;8.07;70.76;96497.22;5010366;28;20053;-76
2022/05/19 00:18:52;;;;;;;7.70;2.78;;;;;;;8.04;70.36;96503.69;5010615;28;20025;-77
2022/05/19 00:21:17;;;;;;;5.82;2.65;;;;;;;8.01;70.43;96499.44;5027157;28;20038;-77
2022/05/19 00:23:43;;;;;;;5.43;2.53;;;;;;;8.06;70.20;96495.53;5010553;28;20033;-75
2022/05/19 00:26:08;;;;;;;5.32;2.67;;;;;;;8.06;69.96;96501.72;5010566;28;20034;-76
2022/05/19 00:28:34;;;;;;;5.28;2.80;;;;;;;7.99;69.91;96504.09;5026614;28;20040;-76
2022/05/19 00:30:59;;;;;;;4.03;2.50;;;;;;;7.98;70.04;96507.72;5010395;28;20025;-76
2022/05/19 00:33:25;;;;;;;5.10;3.00;;;;;;;7.90;70.37;96508.41;5027823;28;20048;-76
2022/05/19 00:35:50;;;;;;;4.82;2.80;;;;;;;7.83;70.50;96519.75;5026824;28;20022;-76
2022/05/19 00:38:16;;;;;;;4.43;2.90;;;;;;;7.84;70.65;96518.78;5026511;28;20034;-76
2022/05/19 00:40:47;;;;;;;4.55;2.90;;;;;;;7.82;70.96;96526.09;5027974;28;20025;-76
2022/05/19 00:43:12;;;;;;;5.95;2.90;;;;;;;7.81;70.73;96519.91;5026760;28;20026;-75
2022/05/19 00:45:41;;;;;;;4.78;3.10;;;;;;;7.79;70.09;96514.69;5027202;28;20511;-75
2022/05/19 00:48:19;;;;;;;8.88;2.90;;;;;;;7.83;69.70;96522.44;5026388;28;20343;-74
2022/05/19 00:50:49;;;;;;;5.28;2.60;;;;;;;7.83;68.90;96523.28;5027094;28;20025;-75
2022/05/19 00:53:27;;;;;;;4.05;2.90;;;;;;;7.82;68.99;96528.75;5028228;28;20025;-75
2022/05/19 00:55:52;;;;;;;4.63;2.63;;;;;;;7.77;69.10;96529.16;5010845;28;20143;-75
2022/05/19 00:58:27;;;;;;;4.93;3.45;;;;;;;7.70;69.57;96523.50;5026601;28;20029;-75
2022/05/19 01:00:54;;;;;;;7.60;2.85;;;;;;;7.73;69.42;96528.56;5026170;28;20064;-75
2022/05/19 01:03:20;;;;;;;4.72;2.65;;;;;;;7.64;69.22;96534.72;5025833;28;20049;-75
2022/05/19 01:05:51;;;;;;;4.88;2.83;;;;;;;7.50;69.40;96539.38;5026196;28;20097;-75
2022/05/19 01:08:31;;;;;;;3.97;2.40;;;;;;;7.52;68.64;96542.78;5025845;28;20499;-75
2022/05/19 01:10:57;;;;;;;2.97;2.20;;;;;;;7.49;68.63;96539.53;5027623;28;20037;-75
2022/05/19 01:13:23;;;;;;;4.72;2.72;;;;;;;7.48;68.66;96544.00;5009764;28;20029;-75
2022/05/19 01:15:51;;;;;;;3.35;2.30;;;;;;;7.40;68.23;96541.13;5025855;28;20025;-75
2022/05/19 01:18:16;;;;;;;3.28;1.85;;;;;;;7.39;67.42;96539.44;5026317;28;20029;-75
2022/05/19 01:20:42;;;;;;;3.92;2.13;;;;;;;7.33;67.47;96539.97;5025567;28;20508;-75
2022/05/19 01:23:23;;;;;;;8.85;2.80;;;;;;;7.32;67.89;96539.13;5027044;28;20459;-75
2022/05/19 01:25:58;;;;;;;4.07;2.30;;;;;;;7.28;67.59;96546.56;5026903;28;20029;-76
2022/05/19 01:28:23;;;;;;;4.53;2.33;;;;;;;7.21;67.95;96545.38;5010286;28;20029;-76
2022/05/19 01:30:49;;;;;;;6.03;2.40;;;;;;;7.19;68.18;96552.63;5027447;28;20036;-76
2022/05/19 01:33:14;;;;;;;5.55;2.33;;;;;;;7.17;68.71;96554.63;5025586;28;20013;-76
2022/05/19 01:35:40;;;;;;;7.10;2.45;;;;;;;7.23;67.98;96556.75;5026957;28;20037;-75
2022/05/19 01:38:14;;;;;;;3.67;2.38;;;;;;;7.23;67.76;96547.91;5026382;28;20021;-75
2022/05/19 01:40:58;;;;;;;4.43;2.40;;;;;;;7.25;68.63;96560.16;5025667;28;20030;-75
2022/05/19 01:44:01;;;;;;;4.30;2.53;;;;;;;7.20;68.93;96562.34;5026843;28;20155;-76
2022/05/19 01:46:34;;;;;;;4.67;2.27;;;;;;;7.22;68.62;96557.72;5026631;28;20039;-76
2022/05/19 01:49:10;;;;;;;4.65;2.28;;;;;;;7.20;68.27;96559.69;5009126;28;20026;-76
2022/05/19 01:51:44;;;;;;;5.75;2.00;;;;;;;7.13;67.75;96547.81;5008551;28;20040;-76
2022/05/19 01:54:22;;;;;;;3.58;2.30;;;;;;;7.06;68.53;96558.19;5025370;28;20492;-76
2022/05/19 01:57:11;;;;;;;2.95;2.15;;;;;;;7.07;68.68;96559.84;5024853;28;20040;-76
2022/05/19 01:59:47;;;;;;;6.68;2.33;;;;;;;7.09;68.53;96562.41;5025000;28;20061;-77
2022/05/19 02:02:18;;;;;;;4.13;2.40;;;;;;;7.10;67.68;96561.41;5009151;28;20080;-75
2022/05/19 02:04:48;;;;;;;3.58;2.15;;;;;;;7.04;67.18;96571.63;5025390;28;20035;-75
2022/05/19 02:07:14;;;;;;;6.00;2.38;;;;;;;7.03;67.48;96569.94;5026722;28;20061;-76
2022/05/19 02:09:48;;;;;;;3.38;2.15;;;;;;;7.04;67.54;96574.28;5025170;28;20064;-76
2022/05/19 02:12:13;;;;;;;3.30;2.15;;;;;;;6.99;67.40;96563.16;5009003;28;20053;-76
2022/05/19 02:14:48;;;;;;;4.03;2.25;;;;;;;7.00;67.21;96569.31;5025055;28;20018;-76
2022/05/19 02:17:15;;;;;;;6.60;2.50;;;;;;;7.09;67.34;96568.59;5024263;28;20446;-76
2022/05/19 02:19:42;;;;;;;3.75;2.55;;;;;;;7.10;66.86;96572.09;5024913;28;20548;-76
2022/05/19 02:22:16;;;;;;;5.50;2.33;;;;;;;7.13;67.05;96569.16;5024866;28;20036;-75
2022/05/19 02:24:46;;;;;;;4.65;2.33;;;;;;;7.08;66.88;96569.53;5009164;28;20033;-76
2022/05/19 02:27:32;;;;;;;4.55;2.50;;;;;;;7.03;66.51;96569.94;5008364;28;20026;-75
2022/05/19 02:30:00;;;;;;;4.60;2.13;;;;;;;6.98;67.06;96565.97;5024554;28;20061;-75
2022/05/19 02:32:25;;;;;;;3.75;2.17;;;;;;;6.96;66.66;96574.09;5008589;28;20076;-77
2022/05/19 02:34:51;;;;;;;3.05;2.30;;;;;;;6.90;66.83;96570.09;5025625;28;20085;-77
2022/05/19 02:37:16;;;;;;;4.45;2.10;;;;;;;6.87;67.43;96569.50;5024720;28;20034;-77
2022/05/19 02:39:41;;;;;;;3.50;2.13;;;;;;;6.77;67.54;96564.09;5025570;28;20017;-76
2022/05/19 02:42:07;;;;;;;8.80;2.50;;;;;;;6.77;66.75;96566.75;5026291;28;20053;-77
2022/05/19 02:44:32;;;;;;;4.32;2.17;;;;;;;6.64;66.71;96575.72;5025921;28;20566;-77
2022/05/19 02:46:58;;;;;;;5.32;2.70;;;;;;;6.55;67.97;96573.81;5007877;28;20025;-76
2022/05/19 02:49:23;;;;;;;4.15;2.00;;;;;;;6.48;67.80;96570.78;5025901;28;20033;-75
2022/05/19 02:51:49;;;;;;;3.67;2.47;;;;;;;6.50;68.26;96573.31;5025453;28;20032;-75
2022/05/19 02:54:20;;;;;;;4.25;2.58;;;;;;;6.52;68.54;96579.38;5025873;28;20048;-76
2022/05/19 02:56:46;;;;;;;6.65;2.80;;;;;;;6.53;68.20;96579.25;5025748;28;20144;-76
2022/05/19 02:59:11;;;;;;;3.58;2.25;;;;;;;6.50;68.49;96574.19;5024749;28;20130;-76
2022/05/19 03:01:37;;;;;;;3.17;2.33;;;;;;;6.48;68.60;96573.44;5024321;28;20048;-76
2022/05/19 03:04:02;;;;;;;5.30;2.70;;;;;;;6.52;69.39;96574.91;5024633;28;20064;-76
2022/05/19 03:06:28;;;;;;;4.28;2.67;;;;;;;6.54;68.73;96580.97;5024288;28;20029;-76
2022/05/19 03:08:53;;;;;;;4.93;2.70;;;;;;;6.59;69.60;96587.75;5026581;28;20545;-75
2022/05/19 03:11:18;;;;;;;4.38;2.40;;;;;;;6.62;69.36;96591.00;5030036;28;20377;-76
2022/05/19 03:13:44;;;;;;;5.63;2.38;;;;;;;6.65;69.33;96587.25;5029238;28;20491;-76
2022/05/19 03:16:09;;;;;;;4.10;2.13;;;;;;;6.66;68.99;96589.78;5030006;28;20022;-76
2022/05/19 03:18:35;;;;;;;4.32;2.50;;;;;;;6.66;68.74;96581.78;5029168;28;20029;-76
2022/05/19 03:21:00;;;;;;;5.65;2.85;;;;;;;6.69;68.48;96588.69;5028506;28;20026;-75
2022/05/19 03:23:25;;;;;;;7.68;3.35;;;;;;;6.76;68.99;96599.69;5029666;28;20014;-75
2022/05/19 03:25:53;;;;;;;3.90;2.60;;;;;;;6.77;68.46;96596.91;5029174;28;20037;-75
2022/05/19 03:28:18;;;;;;;3.85;2.53;;;;;;;6.80;68.86;96604.66;5029495;28;20025;-75
2022/05/19 03:30:43;;;;;;;5.15;2.63;;;;;;;6.84;68.23;96601.75;5028977;28;20451;-76
2022/05/19 03:33:09;;;;;;;6.05;2.80;;;;;;;6.92;67.83;96605.50;5011785;28;20440;-75
2022/05/19 03:35:34;;;;;;;7.18;3.45;;;;;;;6.93;68.21;96611.69;5010801;28;20033;-75
2022/05/19 03:38:00;;;;;;;3.60;2.50;;;;;;;6.91;67.82;96613.63;5028162;28;20028;-75
2022/05/19 03:40:26;;;;;;;4.22;2.65;;;;;;;6.98;67.86;96620.13;5027647;28;20499;-77
2022/05/19 03:42:51;;;;;;;8.68;2.97;;;;;;;7.03;68.29;96612.59;5011302;28;20042;-76
2022/05/19 03:45:16;;;;;;;4.43;3.15;;;;;;;7.16;67.90;96619.59;5029169;28;20030;-77
2022/05/19 03:47:42;;;;;;;6.38;3.08;;;;;;;7.14;67.59;96619.72;5010853;28;20033;-76
2022/05/19 03:50:08;;;;;;;4.38;2.78;;;;;;;7.33;67.67;96623.56;5029201;28;20021;-76
2022/05/19 03:52:36;;;;;;;3.67;2.88;;;;;;;7.51;67.35;96628.34;5027308;28;20480;-76
2022/05/19 03:55:02;;;;;;;5.50;2.63;;;;;;;7.62;66.70;96627.44;5011290;28;20404;-76
2022/05/19 03:57:27;;;;;;;5.90;2.60;;;;;;;7.49;66.63;96633.81;5027234;28;20500;-77
2022/05/19 03:59:53;;;;;;;3.38;2.15;;;;;;;7.51;66.69;96636.34;5028869;28;20029;-77
2022/05/19 04:02:18;;;;;;;4.15;2.30;;;;;;;7.61;66.08;96633.78;5028913;28;20029;-76
2022/05/19 04:04:44;;;;;;;5.22;2.28;;;;;;;7.66;65.55;96639.53;5010898;28;20029;-76
2022/05/19 04:07:09;;;;;;;5.57;2.45;;;;;;;7.71;65.69;96653.38;5027589;28;20032;-75
2022/05/19 04:09:35;;;;;;;3.33;2.28;;;;;;;7.79;65.36;96650.03;5028318;28;20030;-77
2022/05/19 04:12:00;;;;;;;4.00;2.25;;;;;;;7.97;64.87;96633.44;5028588;28;20037;-76
2022/05/19 04:14:27;;;;;;;3.33;1.98;;;;;;;8.04;64.04;96638.13;5028194;28;20021;-76
2022/05/19 04:16:53;;;;;;;3.22;2.30;;;;;;;7.92;64.17;96649.84;5027260;28;20033;-76
2022/05/19 04:19:19;;;;;;;3.88;2.42;;;;;;;7.80;64.28;96646.41;5028326;28;20059;-76
2022/05/19 04:21:44;;;;;;;4.18;2.35;;;;;;;8.13;64.04;96640.97;5026827;28;20029;-75
2022/05/19 04:24:11;;;;;;;5.78;2.33;;;;;;;8.42;62.80;96642.97;5010658;28;20029;-76
2022/05/19 04:26:36;;;;;;;6.97;2.65;;;;;;;8.49;62.53;96644.13;5010414;28;20060;-76
2022/05/19 04:29:01;;;;;;;6.05;2.38;;;;;;;8.57;62.38;96654.19;5026979;28;20508;-77
2022/05/19 04:31:27;;;;;;;3.33;2.28;;;;;;;8.77;61.55;96647.06;5028034;28;20034;-77
2022/05/19 04:33:52;;;;;;;6.05;2.35;;;;;;;9.05;61.29;96645.59;5028473;28;20032;-76
2022/05/19 04:36:18;;;;;;;3.65;2.47;;;;;;;9.23;60.77;96654.66;5026594;28;20032;-77
2022/05/19 04:38:43;;;;;;;4.60;2.33;;;;;;;9.46;60.12;96649.03;5028579;28;20034;-76
2022/05/19 04:41:08;;;;;;;4.15;2.33;;;;;;;9.55;59.88;96651.88;5027728;28;20045;-76
2022/05/19 04:43:34;;;;;;;4.07;2.45;;;;;;;9.82;58.98;96647.66;5028183;28;20025;-75
2022/05/19 04:45:59;;;;;;;4.50;2.40;;;;;;;9.85;58.48;96655.41;5027814;28;20021;-78
2022/05/19 04:48:25;;;;;;;6.35;2.80;;;;;;;10.15;58.50;96658.88;5027827;28;20048;-76
2022/05/19 04:50:52;;;;;;;9.15;2.90;;;;;;;10.38;57.47;96659.38;5027738;28;20112;-76
2022/05/19 04:53:17;;;;;;;12.10;2.67;;;;;;;10.55;57.64;96653.44;5026074;28;20037;-76
2022/05/19 04:55:43;;;;;;;5.25;2.40;;;;;;;10.63;56.78;96656.22;5026468;28;20406;-77
2022/05/19 04:58:08;;;;;;;3.55;2.53;;;;;;;10.82;55.87;96663.34;5025802;28;20037;-76
2022/05/19 05:00:34;;;;;;;7.13;2.22;;;;;;;10.97;56.24;96657.50;5026588;28;20091;-77
2022/05/19 05:03:00;;;;;;;4.57;2.63;;;;;;;10.89;57.36;96658.25;5026217;28;20021;-76
2022/05/19 05:05:25;;;;;;;2.88;2.20;;;;;;;11.17;55.59;96668.13;5027439;28;20026;-76
2022/05/19 05:07:51;;;;;;;4.80;2.60;;;;;;;11.20;56.44;96671.38;5026334;28;20037;-76
2022/05/19 05:10:16;;;;;;;4.38;3.28;;;;;;;11.35;55.96;96671.69;5025628;28;20116;-77
2022/05/19 05:12:42;;;;;;;3.88;2.42;;;;;;;11.48;55.21;96673.16;5026846;28;20030;-77
2022/05/19 05:15:08;;;;;;;6.45;2.92;;;;;;;11.49;55.42;96664.94;5009250;28;20025;-79
2022/05/19 05:17:33;;;;;;;4.10;2.50;;;;;;;11.64;54.17;96668.97;4993785;28;20581;-78
2022/05/19 05:19:59;;;;;;;4.45;3.20;;;;;;;11.61;54.44;96665.56;5025975;28;20101;-79
2022/05/19 05:22:24;;;;;;;5.75;3.03;;;;;;;11.74;55.21;96665.19;5009886;28;20043;-80
2022/05/19 05:24:49;;;;;;;6.28;2.67;;;;;;;11.82;54.75;96671.63;5009708;28;20037;-79
2022/05/19 05:27:15;;;;;;;6.22;3.28;;;;;;;11.96;54.53;96667.56;5025717;28;20538;-77
2022/05/19 05:29:40;;;;;;;6.65;2.80;;;;;;;12.08;53.95;96677.09;5027300;28;20096;-78
2022/05/19 05:32:06;;;;;;;4.57;2.55;;;;;;;12.16;54.18;96673.63;5008455;28;20345;-80
2022/05/19 05:34:31;;;;;;;4.38;2.60;;;;;;;12.29;53.94;96672.38;5026118;28;20515;-77
2022/05/19 05:36:57;;;;;;;4.15;2.42;;;;;;;12.17;53.99;96672.63;5026753;28;20087;-78
2022/05/19 05:39:36;;;;;;;4.55;2.53;;;;;;;12.27;55.07;96680.59;5108005;27;1313776;-78
2022/05/19 05:42:04;;;;;;;4.97;2.30;;;;;;;12.54;53.98;96680.63;5106859;28;20027;-77
2022/05/19 05:44:29;;;;;;;6.55;2.90;;;;;;;12.60;53.92;96674.59;5106860;28;20347;-79
2022/05/19 05:46:54;;;;;;;6.85;2.63;;;;;;;12.78;53.98;96679.06;5124831;28;20019;-77
2022/05/19 05:49:20;;;;;;;4.53;2.83;;;;;;;12.38;54.73;96671.41;5123006;28;20793;-76
2022/05/19 05:51:47;;;;;;;6.97;2.88;;;;;;;12.57;54.66;96677.59;5125975;27;20031;-78
2022/05/19 05:54:12;;;;;;;8.70;3.47;;;;;;;12.67;54.78;96680.19;5124138;27;20030;-78
2022/05/19 05:56:38;;;;;;;5.65;3.30;;;;;;;12.81;54.54;96684.13;5124619;28;20020;-78
2022/05/19 05:59:03;;;;;;;4.05;2.58;;;;;;;12.98;54.46;96685.91;5122953;28;20023;-77
2022/05/19 06:01:29;;;;;;;7.38;2.85;;;;;;;13.07;53.83;96684.06;5125410;27;20100;-79
2022/05/19 06:03:54;;;;;;;8.13;2.60;;;;;;;13.31;52.47;96673.56;5106968;28;20019;-75
2022/05/19 06:06:20;;;;;;;12.23;3.78;;;;;;;13.48;52.14;96690.59;5108856;28;20052;-75
2022/05/19 06:08:45;;;;;;;5.13;3.00;;;;;;;13.62;51.64;96681.09;5103663;28;20020;-77
2022/05/19 06:11:12;;;;;;;6.25;3.20;;;;;;;13.65;51.78;96686.16;5102264;28;20046;-77
2022/05/19 06:13:38;;;;;;;3.40;2.63;;;;;;;13.71;51.40;96685.47;5103773;28;20081;-76
2022/05/19 06:16:03;;;;;;;4.68;2.90;;;;;;;13.73;51.38;96685.31;5102187;28;20028;-78
2022/05/19 06:18:29;;;;;;;4.30;2.83;;;;;;;13.80;51.95;96680.09;5104746;28;20104;-75
2022/05/19 06:20:54;;;;;;;4.75;2.65;;;;;;;13.93;52.09;96685.84;5102533;28;20019;-79
2022/05/19 06:23:20;;;;;;;3.25;2.50;;;;;;;14.02;50.92;96686.69;5102942;28;20024;-77
2022/05/19 06:25:45;;;;;;;4.10;2.60;;;;;;;13.86;52.31;96683.97;5086551;28;20428;-77
2022/05/19 06:28:11;;;;;;;5.07;2.78;;;;;;;14.03;51.91;96684.81;5102087;28;20020;-79
2022/05/19 06:30:36;;;;;;;5.72;3.00;;;;;;;13.83;52.78;96675.19;5103137;28;20102;-77
2022/05/19 06:33:02;;;;;;;4.97;2.88;;;;;;;14.04;52.63;96689.22;5085163;28;20382;-76
2022/05/19 06:35:29;;;;;;;5.05;3.13;;;;;;;14.06;52.11;96690.72;5104422;28;20063;-77
2022/05/19 06:37:54;;;;;;;5.57;3.08;;;;;;;14.16;52.93;96685.16;5084558;28;20057;-77
2022/05/19 06:40:23;;;;;;;4.05;2.78;;;;;;;14.36;51.24;96684.84;5103160;28;20114;-76
2022/05/19 06:42:49;;;;;;;6.00;2.60;;;;;;;14.50;50.64;96679.75;5102866;28;20020;-77
2022/05/19 06:45:17;;;;;;;5.43;3.20;;;;;;;14.62;50.10;96683.75;5102061;28;20069;-77
2022/05/19 06:47:42;;;;;;;7.43;3.00;;;;;;;14.60;50.86;96685.81;5104111;28;20338;-75
2022/05/19 06:50:08;;;;;;;5.70;2.72;;;;;;;14.71;51.88;96688.16;5092561;28;20080;-77
2022/05/19 06:52:34;;;;;;;4.05;2.70;;;;;;;14.88;51.74;96681.91;5072515;28;20024;-77
2022/05/19 06:55:00;;;;;;;4.43;2.70;;;;;;;14.88;51.81;96687.28;5089234;28;20081;-76
2022/05/19 06:57:27;;;;;;;8.52;2.50;;;;;;;14.88;51.16;96688.13;5088990;28;20032;-76
2022/05/19 06:59:52;;;;;;;3.30;2.58;;;;;;;14.82;51.20;96684.25;5071459;28;20028;-78
2022/05/19 07:02:19;;;;;;;5.07;2.50;;;;;;;14.81;52.49;96679.03;5071935;28;20031;-77
2022/05/19 07:04:44;;;;;;;5.30;2.20;;;;;;;14.97;52.27;96680.84;5072371;28;20040;-79
2022/05/19 07:07:10;;;;;;;4.30;2.50;;;;;;;15.08;51.13;96688.56;5087876;28;20485;-77
2022/05/19 07:09:36;;;;;;;3.63;2.20;;;;;;;15.26;48.45;96679.38;5088829;28;20032;-76
2022/05/19 07:12:03;;;;;;;6.00;2.40;;;;;;;15.29;48.56;96679.03;5088965;28;20103;-77
2022/05/19 07:14:29;;;;;;;4.15;2.38;;;;;;;15.28;48.86;96690.03;5089171;28;20016;-78
2022/05/19 07:16:55;;;;;;;6.30;2.30;;;;;;;15.38;48.31;96682.53;5087361;28;20085;-76
2022/05/19 07:22:05;;;;;;;4.72;1.98;;;;;;;15.57;48.00;96678.53;5090027;28;20036;-77
2022/05/19 07:24:31;;;;;;;2.88;2.22;;;;;;;15.63;48.95;96674.28;5087304;28;20028;-76
2022/05/19 07:26:57;;;;;;;4.60;2.30;;;;;;;15.75;48.82;96669.28;5089824;28;20020;-76
2022/05/19 07:29:22;;;;;;;5.88;2.20;;;;;;;15.93;48.96;96674.41;5087069;28;20648;-79
2022/05/19 07:31:49;;;;;;;3.90;1.75;;;;;;;16.12;46.09;96677.69;5088498;28;20030;-75
2022/05/19 07:34:17;;;;;;;5.75;2.10;;;;;;;16.10;46.78;96663.50;5087410;28;20586;-77
2022/05/19 07:36:42;;;;;;;7.03;1.92;;;;;;;16.10;46.84;96673.47;5087993;28;20499;-78
2022/05/19 07:39:08;;;;;;;6.47;2.35;;;;;;;16.15;46.38;96673.78;5089109;28;20100;-77
2022/05/19 07:41:34;;;;;;;4.10;2.05;;;;;;;16.16;45.98;96670.03;5070482;28;20092;-76
2022/05/19 07:43:59;;;;;;;2.60;1.70;;;;;;;16.36;45.10;96670.41;5089329;28;20505;-77
2022/05/19 07:46:25;;;;;;;6.32;2.55;;;;;;;16.35;44.70;96665.97;5087110;28;20031;-78
2022/05/19 07:48:54;;;;;;;8.30;2.22;;;;;;;16.49;45.09;96667.03;5088260;28;20109;-78
2022/05/19 07:51:23;;;;;;;5.22;2.00;;;;;;;16.62;43.92;96671.00;5087050;28;20481;-78
2022/05/19 07:53:49;;;;;;;7.18;2.08;;;;;;;16.67;44.12;96669.41;5088010;28;20028;-77
2022/05/19 07:56:15;;;;;;;2.33;1.48;;;;;;;16.65;43.03;96674.16;5070850;28;20085;-78
2022/05/19 07:58:41;;;;;;;2.40;1.80;;;;;;;16.71;43.44;96667.16;5087166;28;20028;-80
2022/05/19 08:01:07;;;;;;;4.57;2.65;;;;;;;16.73;44.88;96666.97;5086872;28;20036;-78
2022/05/19 08:03:33;;;;;;;3.08;1.75;;;;;;;16.91;44.17;96663.91;5088089;28;20027;-78
2022/05/19 08:05:58;;;;;;;4.85;1.75;;;;;;;16.86;44.37;96664.44;5054214;28;20019;-78
2022/05/19 08:08:24;;;;;;;4.28;1.52;;;;;;;16.96;42.79;96660.63;5087868;28;20039;-76
2022/05/19 08:10:49;;;;;;;5.63;1.60;;;;;;;16.97;42.21;96662.31;5087729;28;20552;-79
2022/05/19 08:15:59;;;;;;;2.80;1.30;;;;;;;16.92;40.16;96644.75;5087080;28;20038;-80
2022/05/19 08:18:25;;;;;;;2.88;1.40;;;;;;;16.95;41.44;96654.38;5087834;28;20036;-78
2022/05/19 08:20:59;;;;;;;2.75;1.35;;;;;;;17.02;41.88;96654.47;5086042;28;20020;-77
2022/05/19 08:23:35;;;;;;;4.35;1.50;;;;;;;17.11;41.24;96653.34;5087860;28;20529;-76
2022/05/19 08:26:01;;;;;;;4.00;1.40;;;;;;;17.15;41.40;96649.22;5070630;28;20110;-76
2022/05/19 08:28:30;;;;;;;3.08;0.85;;;;;;;17.26;35.95;96639.78;5087756;28;20107;-80
2022/05/19 08:31:00;;;;;;;4.07;1.10;;;;;;;17.26;34.92;96637.09;5070381;28;20108;-78
2022/05/19 08:33:26;;;;;;;3.80;1.10;;;;;;;17.23;34.89;96640.19;5070105;28;20039;-78
2022/05/19 08:35:51;;;;;;;6.03;2.00;;;;;;;17.26;38.99;96642.50;5087521;28;20031;-76
2022/05/19 08:38:17;;;;;;;4.45;1.30;;;;;;;17.09;37.31;96643.75;5085231;28;20055;-80
2022/05/19 08:40:44;;;;;;;3.80;1.30;;;;;;;17.33;37.88;96645.28;5088169;28;20125;-77
2022/05/19 08:43:11;;;;;;;4.35;1.20;;;;;;;17.50;38.58;96634.22;5085742;28;20028;-78
2022/05/19 08:45:40;;;;;;;3.55;1.20;;;;;;;17.64;37.43;96641.47;5087405;28;20023;-77
2022/05/19 08:48:11;;;;;;;1.92;1.02;;;;;;;17.72;35.92;96635.06;5087758;28;20028;-77
2022/05/19 08:50:51;;;;;;;2.97;1.10;;;;;;;17.76;35.00;96635.53;5086464;28;20452;-78
2022/05/19 08:53:16;;;;;;;4.85;1.30;;;;;;;17.83;36.82;96627.47;5087060;28;20032;-78
2022/05/19 08:55:48;;;;;;;5.90;1.30;;;;;;;17.85;34.82;96631.66;5086976;28;20544;-80
2022/05/19 08:58:25;;;;;;;6.43;1.30;;;;;;;17.84;34.01;96627.25;5053620;28;20499;-77
2022/05/19 09:00:57;;;;;;;7.00;2.22;;;;;;;17.88;35.58;96619.56;5070054;28;20117;-80
2022/05/19 09:03:57;;;;;;;5.43;1.37;;;;;;;17.99;34.08;96620.94;5069863;28;20024;-78
2022/05/19 09:07:56;;;;;;;4.05;1.10;;;;;;;17.96;33.83;96614.00;5048056;28;20043;-80
2022/05/19 09:09:59;;;;;;;7.53;1.55;;;;;;;17.99;34.64;96612.78;5073908;28;20028;-78
2022/05/19 09:12:25;;;;;;;3.63;1.40;;;;;;;17.98;33.78;96608.38;5060904;28;20453;-78
2022/05/19 09:14:52;;;;;;;4.75;1.50;;;;;;;18.12;34.25;96610.19;5070139;28;20478;-76
2022/05/19 09:17:26;;;;;;;7.22;1.20;;;;;;;18.21;38.09;96602.75;5068446;28;20028;-78
2022/05/19 09:19:53;;;;;;;4.93;1.23;;;;;;;18.33;34.54;96605.75;5088210;28;20026;-79
2022/05/19 09:22:24;;;;;;;3.03;1.20;;;;;;;18.25;33.46;96600.50;5085208;28;20462;-78
2022/05/19 09:24:50;;;;;;;3.33;1.38;;;;;;;18.28;34.43;96592.78;5086677;28;20456;-79
2022/05/19 09:27:16;;;;;;;2.15;0.98;;;;;;;18.31;34.36;96590.72;5087608;28;20032;-79
2022/05/19 09:29:50;;;;;;;5.00;1.30;;;;;;;18.37;34.48;96589.91;5085408;28;20165;-78
2022/05/19 09:32:33;;;;;;;3.42;1.20;;;;;;;18.36;32.57;96582.81;5086445;28;20028;-77
2022/05/19 09:35:07;;;;;;;3.00;1.40;;;;;;;18.38;34.40;96581.56;5085454;28;20530;-77
2022/05/19 09:37:42;;;;;;;5.43;1.20;;;;;;;17.85;35.14;96588.22;5087556;28;20028;-78
2022/05/19 09:40:11;;;;;;;2.42;1.25;;;;;;;17.98;35.60;96592.09;5086163;28;20057;-79
2022/05/19 09:42:58;;;;;;;2.35;1.30;;;;;;;18.11;32.73;96584.06;5086177;28;20028;-76
2022/05/19 09:45:26;;;;;;;4.32;1.05;;;;;;;18.21;33.73;96585.63;5085706;28;20047;-77
2022/05/19 09:47:57;;;;;;;3.90;1.15;;;;;;;18.12;33.05;96583.06;5083719;28;20110;-76
2022/05/19 09:50:27;;;;;;;3.85;1.10;;;;;;;17.89;34.88;96584.06;5085317;28;20028;-77
2022/05/19 09:52:59;;;;;;;2.90;1.25;;;;;;;18.04;34.85;96572.31;5085516;28;20442;-78
2022/05/19 09:55:25;;;;;;;6.03;1.17;;;;;;;18.12;33.46;96572.19;5086072;28;20028;-77
2022/05/19 09:57:51;;;;;;;5.60;1.20;;;;;;;18.15;32.17;96568.25;5084920;28;20320;-77
2022/05/19 10:00:36;;;;;;;3.60;1.35;;;;;;;18.18;33.94;96564.31;5085217;28;20021;-78
2022/05/19 10:03:02;;;;;;;3.35;1.17;;;;;;;18.21;32.12;96559.31;5082147;28;20024;-79
2022/05/19 10:05:31;;;;;;;3.17;1.00;;;;;;;18.21;32.08;96555.75;5063032;28;20027;-77
2022/05/19 10:08:04;;;;;;;4.78;1.35;;;;;;;18.25;33.43;96559.78;5084888;28;20024;-78
2022/05/19 10:10:30;;;;;;;3.97;1.27;;;;;;;18.40;32.53;96552.34;5078420;28;20024;-78
2022/05/19 10:13:02;;;;;;;5.30;1.90;;;;;;;18.43;32.80;96555.72;5059633;28;20456;-79
2022/05/19 10:15:38;;;;;;;4.35;1.33;;;;;;;18.44;35.46;96551.94;5049345;28;20039;-78
2022/05/19 10:18:22;;;;;;;1.92;1.02;;;;;;;18.61;35.69;96550.59;5077036;28;20066;-77
2022/05/19 10:21:11;;;;;;;6.47;1.45;;;;;;;18.49;33.02;96546.75;5079650;28;20024;-77
2022/05/19 10:23:39;;;;;;;3.00;1.40;;;;;;;18.44;32.25;96539.22;5077115;28;20047;-76
2022/05/19 10:26:19;;;;;;;2.95;1.20;;;;;;;18.43;33.47;96539.41;5085970;28;20446;-76
2022/05/19 10:31:41;;;;;;;2.33;1.30;;;;;;;18.26;34.13;96534.28;5086602;28;20101;-78
2022/05/19 10:34:30;;;;;;;2.85;1.15;;;;;;;18.47;35.74;96527.94;5086822;28;20047;-76
2022/05/19 10:37:17;;;;;;;4.55;1.40;;;;;;;18.60;32.84;96527.19;5086162;28;20024;-79
2022/05/19 10:40:11;;;;;;;4.28;1.38;;;;;;;18.70;32.49;96520.53;5082808;28;20536;-77
2022/05/19 10:42:56;;;;;;;5.68;1.30;;;;;;;18.67;32.23;96526.38;5084146;28;20043;-76
2022/05/19 10:45:42;;;;;;;3.20;0.90;;;;;;;18.70;31.60;96524.06;5081239;28;20434;-76
2022/05/19 10:48:36;;;;;;;1.30;0.85;;;;;;;18.59;31.94;96520.06;5085015;28;20077;-76
2022/05/19 10:51:10;;;;;;;5.53;1.40;;;;;;;18.60;31.87;96515.47;5086849;28;20036;-76
2022/05/19 10:54:17;;;;;;;3.58;1.40;;;;;;;18.59;32.87;96514.63;5085068;28;20207;-79
2022/05/19 10:56:53;;;;;;;2.03;1.20;;;;;;;18.67;33.34;96513.59;5083464;28;20451;-80
2022/05/19 10:59:49;;;;;;;2.22;1.17;;;;;;;18.83;31.85;96506.97;5081842;28;20363;-77
2022/05/19 11:02:54;;;;;;;3.75;1.40;;;;;;;18.92;32.36;96509.53;5085217;28;20039;-76
2022/05/19 11:05:20;;;;;;;2.40;1.15;;;;;;;18.91;32.01;96511.41;5065553;28;20055;-77
2022/05/19 11:07:52;;;;;;;2.45;1.10;;;;;;;18.99;32.13;96503.06;5085729;28;20024;-79
2022/05/19 11:10:35;;;;;;;3.50;1.30;;;;;;;19.18;34.76;96508.81;5080946;28;20036;-79
2022/05/19 11:13:12;;;;;;;;;;;;;;;19.29;33.27;96498.34;5086305;28;20115;-79
2022/05/19 11:15:44;;;;;;;3.17;1.65;;;;;;;19.38;33.62;96495.25;5084285;28;20358;-78
2022/05/19 11:18:32;;;;;;;6.30;1.35;;;;;;;19.62;33.06;96495.69;5067457;28;20459;-79
2022/05/19 11:21:11;;;;;;;2.70;1.50;;;;;;;19.58;28.76;96497.16;5067654;28;20032;-77
2022/05/19 11:24:09;;;;;;;2.40;1.00;;;;;;;19.61;29.99;96485.84;5084485;28;20111;-81
2022/05/19 11:26:42;;;;;;;3.15;1.45;;;;;;;19.73;29.62;96487.94;5041018;28;20036;-80
2022/05/19 11:29:26;;;;;;;2.90;1.20;;;;;;;19.87;31.49;96473.28;5067710;28;20484;-79
2022/05/19 11:31:59;;;;;;;2.40;1.20;;;;;;;20.08;30.69;96473.28;5081407;28;20939;-80
2022/05/19 11:34:47;;;;;;;2.13;1.20;;;;;;;20.04;29.71;96472.03;5083711;28;20451;-80
2022/05/19 11:37:23;;;;;;;3.15;1.55;;;;;;;20.03;30.54;96460.31;5081941;28;20062;-80
2022/05/19 11:40:15;;;;;;;2.47;1.20;;;;;;;20.22;29.05;96460.47;5079021;28;20029;-80
2022/05/19 11:42:48;;;;;;;2.10;1.20;;;;;;;20.26;29.61;96450.84;5067208;28;20075;-81
2022/05/19 11:45:37;;;;;;;2.83;1.55;;;;;;;20.40;29.92;96442.59;5082801;28;20028;-81
2022/05/19 11:57:48;;;;;;;2.00;1.00;;;;;;;20.85;27.88;96426.25;5065742;28;20030;-78
2022/05/19 12:00:25;;;;;;;2.63;1.30;;;;;;;21.03;27.57;96424.72;5080338;28;20409;-79
2022/05/19 12:02:53;;;;;;;3.08;1.15;;;;;;;21.11;28.03;96415.44;5082660;28;20059;-81
2022/05/19 12:05:31;;;;;;;1.75;0.90;;;;;;;21.12;27.99;96412.50;5080842;28;20028;-80
2022/05/19 12:07:59;;;;;;;8.25;2.05;;;;;;;21.22;28.68;96422.91;5063497;28;20028;-83